createdAt,value
2022-12-26T00:00:22.820Z,17.75
2022-12-26T00:02:49.391Z,16.33
2022-12-26T00:05:15.839Z,15.98
2022-12-26T00:07:42.532Z,16.85
2022-12-26T00:10:09.089Z,17.05
2022-12-26T00:12:35.590Z,20.38
2022-12-26T00:15:02.217Z,16.13
2022-12-26T00:17:28.713Z,15.52
2022-12-26T00:19:55.163Z,19.63
2022-12-26T00:22:21.670Z,16.48
2022-12-26T00:24:48.117Z,15.23
2022-12-26T00:27:14.464Z,19.88
2022-12-26T00:29:40.881Z,21.52
2022-12-26T00:32:07.331Z,24.30
2022-12-26T00:34:33.700Z,17.77
2022-12-26T00:37:00.297Z,28.42
2022-12-26T00:39:27.040Z,21.90
2022-12-26T00:41:53.401Z,22.38
2022-12-26T00:44:19.868Z,23.70
2022-12-26T00:46:46.295Z,31.17
2022-12-26T00:49:12.705Z,34.25
2022-12-26T00:51:39.201Z,49.20
2022-12-26T00:54:05.588Z,34.75
2022-12-26T00:56:32.086Z,28.63
2022-12-26T00:58:58.457Z,42.90
2022-12-26T01:01:25.130Z,25.92
2022-12-26T01:03:52.187Z,26.13
2022-12-26T01:06:18.668Z,25.65
2022-12-26T01:08:45.123Z,24.98
2022-12-26T01:11:14.708Z,24.88
2022-12-26T01:13:42.069Z,31.55
2022-12-26T01:16:08.665Z,28.83
2022-12-26T01:18:35.825Z,24.65
2022-12-26T01:21:06.039Z,31.10
2022-12-26T01:23:32.618Z,31.85
2022-12-26T01:26:18.342Z,29.00
2022-12-26T01:28:45.553Z,46.92
2022-12-26T01:31:11.978Z,31.38
2022-12-26T01:33:38.455Z,23.15
2022-12-26T01:36:05.252Z,51.90
2022-12-26T01:38:31.666Z,18.60
2022-12-26T01:41:16.416Z,19.65
2022-12-26T01:44:01.231Z,18.85
2022-12-26T01:46:31.765Z,18.13
2022-12-26T01:49:02.270Z,38.65
2022-12-26T01:51:33.573Z,14.05
2022-12-26T01:54:40.391Z,19.33
2022-12-26T01:56:51.341Z,16.02
2022-12-26T01:59:22.486Z,20.27
2022-12-26T02:01:51.839Z,20.52
2022-12-26T02:04:44.527Z,24.17
2022-12-26T02:07:11.216Z,17.52
2022-12-26T02:09:38.980Z,15.60
2022-12-26T02:12:36.676Z,17.10
2022-12-26T02:15:12.381Z,29.40
2022-12-26T02:17:40.146Z,17.23
2022-12-26T02:20:17.238Z,37.63
2022-12-26T02:23:24.186Z,46.53
2022-12-26T02:26:14.063Z,42.50
2022-12-26T02:29:02.532Z,49.97
2022-12-26T02:31:43.792Z,50.67
2022-12-26T02:34:49.356Z,27.48
2022-12-26T02:37:31.801Z,24.35
2022-12-26T02:40:17.450Z,72.82
2022-12-26T02:42:59.242Z,41.50
2022-12-26T02:46:02.522Z,46.92
2022-12-26T02:48:57.672Z,35.83
2022-12-26T02:52:07.923Z,41.80
2022-12-26T02:55:10.608Z,30.27
2022-12-26T02:58:09.549Z,34.85
2022-12-26T03:00:59.707Z,42.33
2022-12-26T03:03:48.980Z,30.35
2022-12-26T03:06:38.747Z,24.77
2022-12-26T03:09:29.308Z,26.65
2022-12-26T03:12:37.555Z,19.90
2022-12-26T03:15:12.174Z,28.08
2022-12-26T03:17:42.940Z,26.33
2022-12-26T03:20:20.060Z,29.08
2022-12-26T03:23:11.072Z,18.17
2022-12-26T03:26:20.914Z,37.60
2022-12-26T03:28:48.963Z,24.40
2022-12-26T03:31:15.929Z,49.13
2022-12-26T03:34:05.575Z,21.10
2022-12-26T03:36:31.859Z,43.25
2022-12-26T03:39:45.630Z,38.28
2022-12-26T03:43:17.202Z,29.70
2022-12-26T03:46:31.196Z,43.95
2022-12-26T03:49:25.035Z,64.35
2022-12-26T03:52:18.391Z,54.35
2022-12-26T03:55:14.981Z,44.97
2022-12-26T03:58:26.877Z,41.30
2022-12-26T04:01:14.485Z,36.15
2022-12-26T04:04:02.279Z,39.10
2022-12-26T04:06:58.146Z,22.80
2022-12-26T04:09:51.270Z,22.13
2022-12-26T04:12:42.609Z,22.20
2022-12-26T04:15:41.654Z,20.55
2022-12-26T04:18:35.674Z,19.58
2022-12-26T04:21:34.602Z,19.58
2022-12-26T04:24:31.639Z,24.60
2022-12-26T04:27:21.161Z,21.75
2022-12-26T04:30:06.665Z,20.80
2022-12-26T04:32:58.608Z,22.90
2022-12-26T04:35:51.106Z,27.75
2022-12-26T04:38:43.053Z,26.38
2022-12-26T04:41:30.498Z,26.83
2022-12-26T04:44:03.680Z,29.27
2022-12-26T04:46:32.168Z,23.75
2022-12-26T04:49:18.711Z,36.83
2022-12-26T04:51:45.142Z,34.03
2022-12-26T04:54:11.489Z,38.13
2022-12-26T04:56:37.873Z,30.80
2022-12-26T04:59:04.277Z,31.20
2022-12-26T05:01:49.389Z,28.30
2022-12-26T05:04:36.493Z,33.03
2022-12-26T05:07:24.072Z,25.98
2022-12-26T05:09:53.441Z,27.25
2022-12-26T05:12:21.025Z,27.17
2022-12-26T05:14:47.486Z,28.80
2022-12-26T05:17:32.958Z,26.05
2022-12-26T05:20:18.180Z,22.50
2022-12-26T05:23:04.082Z,29.95
2022-12-26T05:25:53.248Z,27.70
2022-12-26T05:28:38.831Z,25.70
2022-12-26T05:31:06.083Z,31.90
2022-12-26T05:33:51.359Z,25.55
2022-12-26T05:36:20.223Z,29.90
2022-12-26T05:38:48.109Z,28.75
2022-12-26T05:41:15.243Z,30.35
2022-12-26T05:43:41.802Z,28.52
2022-12-26T05:46:08.221Z,26.95
2022-12-26T05:48:34.772Z,27.88
2022-12-26T05:51:02.646Z,26.65
2022-12-26T05:53:30.210Z,26.95
2022-12-26T05:56:10.721Z,26.95
2022-12-26T05:58:37.887Z,24.92
2022-12-26T06:01:12.519Z,26.70
2022-12-26T06:03:40.022Z,28.70
2022-12-26T06:06:07.067Z,31.15
2022-12-26T06:08:33.590Z,26.77
2022-12-26T06:11:03.536Z,32.58
2022-12-26T06:13:29.927Z,33.88
2022-12-26T06:15:56.383Z,34.50
2022-12-26T06:18:22.856Z,39.70
2022-12-26T06:20:49.259Z,38.42
2022-12-26T06:23:15.782Z,45.17
2022-12-26T06:25:42.305Z,44.20
2022-12-26T06:28:08.665Z,45.40
2022-12-26T06:30:35.084Z,45.35
2022-12-26T06:33:01.458Z,42.72
2022-12-26T06:35:27.848Z,46.00
2022-12-26T06:37:54.263Z,45.65
2022-12-26T06:40:20.804Z,40.95
2022-12-26T06:42:47.159Z,39.45
2022-12-26T06:45:13.562Z,37.83
2022-12-26T06:47:39.979Z,34.83
2022-12-26T06:50:06.751Z,37.90
2022-12-26T06:52:33.130Z,30.80
2022-12-26T06:54:59.744Z,31.02
2022-12-26T06:57:26.277Z,38.90
2022-12-26T06:59:53.397Z,31.17
2022-12-26T07:02:19.861Z,32.25
2022-12-26T07:04:46.333Z,29.50
2022-12-26T07:07:12.717Z,27.60
2022-12-26T07:09:39.143Z,28.80
2022-12-26T07:12:05.974Z,24.77
2022-12-26T07:14:32.447Z,29.08
2022-12-26T07:16:58.948Z,25.92
2022-12-26T07:19:25.367Z,25.92
2022-12-26T07:21:51.843Z,25.30
2022-12-26T07:24:21.065Z,24.83
2022-12-26T07:26:48.502Z,26.25
2022-12-26T07:29:15.673Z,27.45
2022-12-26T07:31:42.662Z,27.35
2022-12-26T07:34:09.153Z,26.38
2022-12-26T07:36:35.863Z,27.05
2022-12-26T07:39:02.698Z,24.70
2022-12-26T07:41:48.190Z,29.25
2022-12-26T07:44:14.727Z,28.40
2022-12-26T07:46:41.161Z,29.42
2022-12-26T07:49:08.083Z,31.80
2022-12-26T07:51:34.516Z,35.38
2022-12-26T07:54:05.502Z,31.55
2022-12-26T07:56:35.580Z,31.40
2022-12-26T07:59:02.018Z,31.40
2022-12-26T08:01:28.731Z,31.80
2022-12-26T08:03:55.200Z,29.90
2022-12-26T08:06:22.607Z,33.85
2022-12-26T08:08:51.554Z,32.65
2022-12-26T08:11:22.321Z,31.95
2022-12-26T08:13:48.970Z,35.33
2022-12-26T08:16:15.836Z,35.20
2022-12-26T08:18:42.712Z,32.92
2022-12-26T08:21:10.308Z,33.17
2022-12-26T08:23:36.806Z,33.95
2022-12-26T08:26:11.653Z,33.95
2022-12-26T08:28:41.532Z,35.33
2022-12-26T08:31:09.780Z,39.17
2022-12-26T08:33:36.610Z,37.25
2022-12-26T08:36:05.479Z,37.05
2022-12-26T08:38:34.121Z,37.55
2022-12-26T08:41:00.912Z,41.72
2022-12-26T08:43:52.749Z,42.15
2022-12-26T08:46:13.889Z,38.08
2022-12-26T08:48:41.228Z,38.05
2022-12-26T08:51:12.030Z,43.85
2022-12-26T08:53:38.427Z,38.30
2022-12-26T08:56:06.680Z,37.83
2022-12-26T08:58:33.858Z,38.05
2022-12-26T09:01:13.251Z,35.95
2022-12-26T09:03:40.401Z,36.13
2022-12-26T09:06:08.058Z,35.92
2022-12-26T09:08:35.791Z,31.48
2022-12-26T09:11:10.383Z,34.90
2022-12-26T09:13:38.376Z,37.92
2022-12-26T09:16:12.710Z,35.40
2022-12-26T09:18:39.593Z,34.28
2022-12-26T09:21:08.553Z,37.03
2022-12-26T09:23:36.166Z,36.40
2022-12-26T09:26:29.280Z,35.55
2022-12-26T09:28:56.216Z,40.28
2022-12-26T09:31:27.712Z,39.92
2022-12-26T09:33:54.330Z,37.72
2022-12-26T09:36:24.868Z,36.50
2022-12-26T09:38:52.398Z,36.50
2022-12-26T09:41:36.371Z,36.22
2022-12-26T09:44:15.029Z,33.45
2022-12-26T09:46:55.939Z,38.75
2022-12-26T09:49:28.404Z,34.67
2022-12-26T09:52:00.504Z,37.08
2022-12-26T09:54:46.780Z,35.35
2022-12-26T09:57:19.859Z,34.88
2022-12-26T09:59:52.207Z,33.13
2022-12-26T10:02:22.229Z,34.55
2022-12-26T10:04:49.179Z,32.45
2022-12-26T10:07:37.007Z,30.67
2022-12-26T10:10:09.500Z,33.33
2022-12-26T10:12:40.258Z,31.83
2022-12-26T10:15:18.429Z,32.78
2022-12-26T10:18:24.408Z,29.92
2022-12-26T10:21:05.660Z,31.45
2022-12-26T10:23:39.927Z,26.80
2022-12-26T10:26:15.270Z,30.13
2022-12-26T10:28:51.541Z,27.38
2022-12-26T10:31:37.245Z,31.40
2022-12-26T10:34:03.628Z,28.65
2022-12-26T10:36:42.637Z,28.50
2022-12-26T10:39:19.239Z,29.08
2022-12-26T10:41:50.191Z,27.80
2022-12-26T10:44:16.904Z,26.77
2022-12-26T10:47:11.397Z,25.63
2022-12-26T10:49:38.268Z,27.83
2022-12-26T10:52:04.891Z,26.30
2022-12-26T10:54:31.357Z,27.42
2022-12-26T10:57:00.023Z,25.88
2022-12-26T10:59:41.637Z,25.70
2022-12-26T11:02:15.328Z,27.45
2022-12-26T11:07:51.085Z,23.08
2022-12-26T11:10:27.485Z,27.42
2022-12-26T11:13:01.029Z,27.58
2022-12-26T11:15:39.359Z,29.02
2022-12-26T11:18:36.307Z,25.25
2022-12-26T11:21:19.869Z,24.73
2022-12-26T11:23:49.469Z,26.65
2022-12-26T11:26:24.953Z,23.88
2022-12-26T11:29:08.660Z,25.27
2022-12-26T11:31:41.284Z,23.45
2022-12-26T11:34:19.788Z,26.55
2022-12-26T11:36:49.536Z,29.42
2022-12-26T11:39:25.921Z,25.42
2022-12-26T11:41:53.027Z,23.10
2022-12-26T11:44:29.034Z,26.83
2022-12-26T11:47:05.917Z,24.38
2022-12-26T11:49:45.854Z,22.38
2022-12-26T11:52:30.935Z,24.40
2022-12-26T11:54:57.473Z,23.77
2022-12-26T11:57:33.457Z,21.25
2022-12-26T12:00:18.892Z,22.20
2022-12-26T12:02:46.043Z,19.90
2022-12-26T12:05:16.090Z,19.73
2022-12-26T12:08:03.364Z,19.60
2022-12-26T12:10:54.883Z,20.70
2022-12-26T12:13:50.496Z,24.63
2022-12-26T12:16:36.682Z,20.15
2022-12-26T12:19:35.611Z,23.67
2022-12-26T12:22:34.314Z,19.02
2022-12-26T12:25:19.795Z,22.27
2022-12-26T12:27:48.929Z,21.10
2022-12-26T12:30:18.379Z,20.27
2022-12-26T12:33:04.999Z,23.50
2022-12-26T12:35:46.275Z,21.83
2022-12-26T12:38:36.274Z,19.80
2022-12-26T12:41:38.031Z,18.65
2022-12-26T12:44:08.619Z,19.55
2022-12-26T12:46:55.185Z,23.60
2022-12-26T12:49:34.912Z,18.10
2022-12-26T12:52:29.037Z,18.23
2022-12-26T12:55:17.611Z,16.83
2022-12-26T12:58:03.854Z,15.50
2022-12-26T13:00:39.551Z,15.18
2022-12-26T13:03:27.053Z,14.88
2022-12-26T13:06:02.453Z,18.25
2022-12-26T13:08:40.178Z,15.52
2022-12-26T13:11:26.493Z,16.42
2022-12-26T13:14:06.591Z,20.27
2022-12-26T13:16:43.592Z,19.80
2022-12-26T13:19:22.444Z,21.27
2022-12-26T13:21:50.389Z,20.55
2022-12-26T13:24:36.286Z,14.63
2022-12-26T13:27:13.540Z,13.02
2022-12-26T13:29:45.665Z,17.83
2022-12-26T13:32:30.628Z,15.25
2022-12-26T13:34:59.455Z,6.35
2022-12-26T13:37:37.935Z,6.55
2022-12-26T13:40:17.750Z,10.18
2022-12-26T13:43:05.794Z,7.45
2022-12-26T13:45:38.277Z,7.15
2022-12-26T13:48:17.146Z,6.95
2022-12-26T13:50:55.213Z,4.80
2022-12-26T13:53:39.274Z,5.28
2022-12-26T13:56:18.798Z,5.93
2022-12-26T13:59:00.425Z,5.40
2022-12-26T14:01:46.525Z,7.65
2022-12-26T14:04:49.894Z,5.70
2022-12-26T14:07:50.168Z,5.45
2022-12-26T14:10:54.562Z,8.45
2022-12-26T14:14:02.234Z,6.68
2022-12-26T14:16:50.297Z,5.90
2022-12-26T14:19:43.543Z,7.28
2022-12-26T14:22:26.527Z,6.97
2022-12-26T14:25:20.151Z,7.72
2022-12-26T14:27:55.687Z,6.25
2022-12-26T14:30:30.519Z,6.70
2022-12-26T14:33:15.109Z,8.52
2022-12-26T14:35:47.564Z,3.85
2022-12-26T14:38:44.080Z,6.38
2022-12-26T14:41:33.935Z,6.15
2022-12-26T14:44:36.615Z,11.55
2022-12-26T14:47:05.140Z,10.40
2022-12-26T14:49:35.538Z,9.85
2022-12-26T14:52:24.552Z,13.15
2022-12-26T14:54:55.430Z,13.65
2022-12-26T14:57:43.923Z,12.88
2022-12-26T15:00:30.011Z,14.48
2022-12-26T15:02:59.364Z,12.48
2022-12-26T15:05:32.550Z,10.40
2022-12-26T15:08:26.821Z,12.05
2022-12-26T15:10:56.007Z,15.15
2022-12-26T15:13:36.508Z,13.60
2022-12-26T15:16:35.153Z,11.13
2022-12-26T15:19:49.088Z,11.85
2022-12-26T15:22:44.711Z,10.27
2022-12-26T15:25:37.164Z,9.43
2022-12-26T15:28:31.905Z,12.95
2022-12-26T15:31:17.162Z,11.30
2022-12-26T15:33:56.167Z,15.82
2022-12-26T15:36:28.621Z,13.25
2022-12-26T15:39:16.761Z,14.70
2022-12-26T15:42:06.446Z,10.80
2022-12-26T15:44:39.891Z,12.25
2022-12-26T15:47:33.210Z,13.13
2022-12-26T15:50:24.812Z,11.95
2022-12-26T15:53:16.034Z,14.85
2022-12-26T15:55:57.663Z,15.40
2022-12-26T15:59:07.269Z,13.82
2022-12-26T16:01:42.971Z,12.48
2022-12-26T16:04:25.356Z,15.23
2022-12-26T16:07:27.298Z,15.30
2022-12-26T16:09:56.189Z,16.35
2022-12-26T16:12:26.899Z,13.00
2022-12-26T16:15:25.525Z,9.93
2022-12-26T16:17:51.998Z,13.68
2022-12-26T16:20:50.557Z,15.68
2022-12-26T16:23:19.782Z,18.70
2022-12-26T16:25:48.192Z,19.13
2022-12-26T16:28:15.303Z,15.98
2022-12-26T16:30:42.377Z,17.45
2022-12-26T16:33:08.846Z,18.42
2022-12-26T16:35:39.288Z,19.52
2022-12-26T16:38:11.581Z,17.80
2022-12-26T16:40:50.068Z,17.65
2022-12-26T16:43:19.498Z,22.30
2022-12-26T16:45:48.675Z,19.30
2022-12-26T16:48:19.555Z,22.70
2022-12-26T16:50:53.127Z,21.98
2022-12-26T16:53:40.390Z,19.90
2022-12-26T16:56:27.975Z,19.92
2022-12-26T16:59:04.568Z,19.33
2022-12-26T17:01:32.762Z,17.40
2022-12-26T17:04:03.776Z,14.13
2022-12-26T17:06:35.483Z,16.25
2022-12-26T17:09:10.769Z,23.02
2022-12-26T17:11:45.019Z,17.38
2022-12-26T17:14:25.284Z,16.38
2022-12-26T17:17:04.274Z,25.58
2022-12-26T17:19:33.486Z,20.38
2022-12-26T17:22:14.959Z,24.40
2022-12-26T17:24:41.979Z,14.48
2022-12-26T17:27:17.561Z,16.95
2022-12-26T17:29:58.250Z,17.52
2022-12-26T17:32:30.911Z,18.20
2022-12-26T17:35:23.405Z,16.35
2022-12-26T17:37:54.637Z,21.17
2022-12-26T17:40:27.290Z,21.83
2022-12-26T17:43:03.918Z,25.80
2022-12-26T17:45:30.332Z,19.33
2022-12-26T17:47:57.632Z,16.92
2022-12-26T17:50:30.063Z,11.82
2022-12-26T17:53:13.138Z,20.45
2022-12-26T17:55:39.897Z,17.52
2022-12-26T17:58:09.346Z,18.17
2022-12-26T18:00:35.713Z,19.88
2022-12-26T18:03:02.203Z,24.80
2022-12-26T18:05:28.730Z,18.42
2022-12-26T18:07:55.464Z,20.85
2022-12-26T18:10:29.124Z,17.95
2022-12-26T18:12:55.869Z,26.65
2022-12-26T18:15:23.223Z,16.98
2022-12-26T18:17:50.720Z,15.38
2022-12-26T18:20:22.854Z,13.38
2022-12-26T18:22:49.354Z,14.15
2022-12-26T18:25:17.658Z,26.05
2022-12-26T18:27:44.704Z,22.02
2022-12-26T18:30:15.404Z,16.98
2022-12-26T18:32:42.000Z,20.67
2022-12-26T18:35:09.540Z,21.05
2022-12-26T18:37:36.346Z,17.42
2022-12-26T18:40:02.988Z,23.67
2022-12-26T18:42:29.325Z,24.50
2022-12-26T18:44:55.916Z,29.33
2022-12-26T18:47:22.772Z,19.38
2022-12-26T18:49:49.454Z,14.25
2022-12-26T18:52:17.558Z,21.20
2022-12-26T18:54:44.594Z,20.75
2022-12-26T18:57:17.280Z,24.67
2022-12-26T18:59:43.709Z,16.88
2022-12-26T19:02:16.303Z,20.83
2022-12-26T19:04:42.706Z,15.32
2022-12-26T19:07:11.117Z,23.58
2022-12-26T19:09:37.517Z,21.05
2022-12-26T19:12:04.047Z,21.10
2022-12-26T19:14:31.382Z,24.73
2022-12-26T19:16:57.806Z,24.02
2022-12-26T19:19:26.552Z,23.05
2022-12-26T19:21:53.105Z,17.83
2022-12-26T19:24:19.551Z,20.40
2022-12-26T19:26:46.050Z,16.35
2022-12-26T19:29:12.492Z,26.13
2022-12-26T19:31:39.107Z,18.48
2022-12-26T19:34:05.550Z,15.35
2022-12-26T19:36:31.985Z,16.90
2022-12-26T19:38:58.853Z,17.38
2022-12-26T19:41:25.374Z,20.25
2022-12-26T19:43:56.418Z,18.40
2022-12-26T19:46:23.871Z,19.60
2022-12-26T19:48:50.899Z,19.02
2022-12-26T19:51:18.838Z,22.42
2022-12-26T19:53:46.179Z,19.40
2022-12-26T19:56:18.522Z,21.42
2022-12-26T19:58:50.534Z,17.90
2022-12-26T20:01:27.829Z,21.85
2022-12-26T20:03:56.975Z,27.05
2022-12-26T20:06:25.983Z,19.08
2022-12-26T20:08:57.010Z,16.00
2022-12-26T20:11:27.385Z,23.52
2022-12-26T20:13:53.970Z,28.83
2022-12-26T20:17:03.013Z,21.00
2022-12-26T20:19:09.116Z,19.25
2022-12-26T20:21:36.252Z,12.45
2022-12-26T20:24:02.827Z,17.40
2022-12-26T20:26:29.701Z,17.30
2022-12-26T20:29:01.134Z,20.65
2022-12-26T20:31:30.057Z,18.00
2022-12-26T20:33:57.641Z,30.45
2022-12-26T20:36:26.945Z,19.58
2022-12-26T20:38:56.571Z,18.70
2022-12-26T20:41:25.695Z,16.33
2022-12-26T20:43:52.428Z,17.90
2022-12-26T20:46:21.485Z,19.15
2022-12-26T20:48:51.193Z,30.67
2022-12-26T20:51:21.192Z,25.38
2022-12-26T20:53:47.587Z,17.40
2022-12-26T20:56:15.542Z,13.90
2022-12-26T20:58:41.975Z,18.85
2022-12-26T21:01:12.248Z,24.35
2022-12-26T21:03:39.263Z,20.90
2022-12-26T21:06:12.998Z,18.88
2022-12-26T21:08:41.513Z,16.65
2022-12-26T21:11:11.209Z,16.35
2022-12-26T21:13:38.762Z,19.80
2022-12-26T21:16:09.842Z,18.00
2022-12-26T21:18:37.290Z,25.55
2022-12-26T21:21:07.625Z,16.98
2022-12-26T21:23:34.409Z,16.52
2022-12-26T21:26:00.870Z,19.88
2022-12-26T21:28:27.427Z,20.20
2022-12-26T21:30:54.265Z,21.65
2022-12-26T21:33:20.704Z,16.35
2022-12-26T21:35:50.724Z,18.98
2022-12-26T21:38:17.500Z,25.25
2022-12-26T21:40:44.701Z,20.90
2022-12-26T21:43:11.163Z,17.77
2022-12-26T21:45:41.337Z,21.13
2022-12-26T21:48:08.282Z,20.02
2022-12-26T21:50:35.059Z,13.73
2022-12-26T21:53:01.738Z,19.83
2022-12-26T21:55:30.850Z,10.52
2022-12-26T21:58:00.658Z,20.65
2022-12-26T22:00:27.110Z,19.52
2022-12-26T22:03:12.416Z,19.00
2022-12-26T22:05:41.040Z,14.18
2022-12-26T22:08:09.580Z,28.15
2022-12-26T22:10:55.940Z,16.95
2022-12-26T22:13:24.354Z,20.27
2022-12-26T22:16:05.083Z,17.75
2022-12-26T22:18:33.030Z,14.75
2022-12-26T22:21:07.220Z,21.65
2022-12-26T22:23:34.167Z,16.15
2022-12-26T22:26:00.867Z,13.02
2022-12-26T22:28:29.439Z,19.00
2022-12-26T22:30:56.500Z,18.55
2022-12-26T22:33:23.117Z,20.83
2022-12-26T22:35:49.703Z,15.10
2022-12-26T22:38:16.134Z,22.45
2022-12-26T22:40:42.559Z,21.50
2022-12-26T22:43:09.162Z,15.07
2022-12-26T22:45:39.611Z,14.48
2022-12-26T22:48:06.144Z,19.27
2022-12-26T22:50:32.580Z,18.73
2022-12-26T22:52:58.953Z,18.48
2022-12-26T22:55:25.300Z,16.80
2022-12-26T22:57:53.348Z,16.92
2022-12-26T23:00:20.873Z,17.33
2022-12-26T23:02:47.392Z,15.35
2022-12-26T23:05:14.383Z,14.90
2022-12-26T23:07:41.050Z,14.48
2022-12-26T23:10:08.652Z,15.30
2022-12-26T23:12:44.371Z,9.40
2022-12-26T23:15:16.769Z,16.23
2022-12-26T23:18:18.911Z,12.52
2022-12-26T23:21:04.720Z,11.07
2022-12-26T23:23:31.477Z,19.13
2022-12-26T23:26:02.222Z,17.30
2022-12-26T23:28:47.387Z,10.75
2022-12-26T23:31:14.415Z,16.52
2022-12-26T23:33:41.066Z,16.08
2022-12-26T23:36:07.897Z,15.40
2022-12-26T23:38:34.366Z,14.05
2022-12-26T23:41:00.812Z,15.80
2022-12-26T23:43:27.300Z,9.65
2022-12-26T23:45:53.709Z,14.10
2022-12-26T23:48:20.340Z,9.40
2022-12-26T23:50:46.936Z,9.63
2022-12-26T23:53:13.412Z,19.10
2022-12-26T23:55:41.488Z,16.98
2022-12-26T23:58:08.605Z,9.75
